sensor_id;sensor_type;location;lat;lon;timestamp;pressure;altitude;pressure_sealevel;temperature;humidity
6090;BME280;3073;42.660;23.316;2023-03-01T00:01:21;94981.94;;;6.50;100.00
6090;BME280;3073;42.660;23.316;2023-03-01T00:03:54;94983.88;;;6.54;100.00
6090;BME280;3073;42.660;23.316;2023-03-01T00:06:32;94985.88;;;6.39;100.00
6090;BME280;3073;42.660;23.316;2023-03-01T00:09:04;94974.56;;;6.22;100.00
6090;BME280;3073;42.660;23.316;2023-03-01T00:11:40;94974.56;;;6.29;100.00
6090;BME280;3073;42.660;23.316;2023-03-01T00:14:12;94974.41;;;6.24;100.00
6090;BME280;3073;42.660;23.316;2023-03-01T00:16:57;94970.69;;;6.13;100.00
6090;BME280;3073;42.660;23.316;2023-03-01T00:19:32;94970.31;;;6.16;100.00
6090;BME280;3073;42.660;23.316;2023-03-01T00:22:00;94962.50;;;6.17;100.00
6090;BME280;3073;42.660;23.316;2023-03-01T00:24:29;94960.97;;;6.03;100.00
6090;BME280;3073;42.660;23.316;2023-03-01T00:26:57;94956.28;;;6.07;100.00
6090;BME280;3073;42.660;23.316;2023-03-01T00:29:25;94945.00;;;5.96;100.00
6090;BME280;3073;42.660;23.316;2023-03-01T00:31:55;94940.34;;;5.87;100.00
6090;BME280;3073;42.660;23.316;2023-03-01T00:34:25;94945.19;;;5.88;100.00
6090;BME280;3073;42.660;23.316;2023-03-01T00:37:00;94937.00;;;5.93;100.00
6090;BME280;3073;42.660;23.316;2023-03-01T00:39:33;94935.28;;;5.87;100.00
6090;BME280;3073;42.660;23.316;2023-03-01T00:42:03;94934.47;;;5.99;100.00
6090;BME280;3073;42.660;23.316;2023-03-01T00:44:40;94937.59;;;5.88;100.00
6090;BME280;3073;42.660;23.316;2023-03-01T00:47:16;94928.44;;;5.87;100.00
6090;BME280;3073;42.660;23.316;2023-03-01T00:49:43;94928.25;;;5.89;100.00
6090;BME280;3073;42.660;23.316;2023-03-01T00:52:26;94925.13;;;5.67;100.00
6090;BME280;3073;42.660;23.316;2023-03-01T00:54:56;94923.94;;;5.63;100.00
6090;BME280;3073;42.660;23.316;2023-03-01T00:57:32;94927.84;;;5.59;100.00
6090;BME280;3073;42.660;23.316;2023-03-01T01:00:22;94921.59;;;5.61;100.00
6090;BME280;3073;42.660;23.316;2023-03-01T01:02:53;94922.59;;;5.67;100.00
6090;BME280;3073;42.660;23.316;2023-03-01T01:05:28;94934.25;;;5.61;100.00
6090;BME280;3073;42.660;23.316;2023-03-01T01:08:21;94914.00;;;5.61;100.00
6090;BME280;3073;42.660;23.316;2023-03-01T01:10:52;94924.34;;;5.73;100.00
6090;BME280;3073;42.660;23.316;2023-03-01T01:13:31;94927.47;;;5.88;100.00
6090;BME280;3073;42.660;23.316;2023-03-01T01:16:00;94921.22;;;5.91;100.00
6090;BME280;3073;42.660;23.316;2023-03-01T01:18:27;94919.84;;;5.95;100.00
6090;BME280;3073;42.660;23.316;2023-03-01T01:20:54;94921.03;;;5.92;100.00
6090;BME280;3073;42.660;23.316;2023-03-01T01:23:22;94923.16;;;6.02;100.00
6090;BME280;3073;42.660;23.316;2023-03-01T01:25:49;94921.59;;;6.01;100.00
6090;BME280;3073;42.660;23.316;2023-03-01T01:28:16;94916.91;;;6.04;100.00
6090;BME280;3073;42.660;23.316;2023-03-01T01:30:43;94915.41;;;5.97;100.00
6090;BME280;3073;42.660;23.316;2023-03-01T01:33:09;94922.22;;;5.96;100.00
6090;BME280;3073;42.660;23.316;2023-03-01T01:35:37;94931.16;;;5.99;100.00
6090;BME280;3073;42.660;23.316;2023-03-01T01:38:04;94934.25;;;6.01;100.00
6090;BME280;3073;42.660;23.316;2023-03-01T01:40:32;94937.41;;;6.03;100.00
6090;BME280;3073;42.660;23.316;2023-03-01T01:42:59;94938.56;;;5.94;100.00
6090;BME280;3073;42.660;23.316;2023-03-01T01:45:29;94943.44;;;5.89;100.00
6090;BME280;3073;42.660;23.316;2023-03-01T01:47:59;94953.97;;;5.86;100.00
6090;BME280;3073;42.660;23.316;2023-03-01T01:50:27;94937.56;;;5.82;100.00
6090;BME280;3073;42.660;23.316;2023-03-01T01:53:05;94939.53;;;5.73;100.00
6090;BME280;3073;42.660;23.316;2023-03-01T01:55:36;94938.94;;;5.91;100.00
6090;BME280;3073;42.660;23.316;2023-03-01T01:58:09;94930.19;;;6.00;100.00
6090;BME280;3073;42.660;23.316;2023-03-01T02:00:37;94925.88;;;5.94;100.00
6090;BME280;3073;42.660;23.316;2023-03-01T02:03:09;94929.56;;;5.85;100.00
6090;BME280;3073;42.660;23.316;2023-03-01T02:05:40;94924.75;;;5.90;100.00
6090;BME280;3073;42.660;23.316;2023-03-01T02:08:11;94923.94;;;5.83;100.00
6090;BME280;3073;42.660;23.316;2023-03-01T02:10:40;94919.28;;;5.73;100.00
6090;BME280;3073;42.660;23.316;2023-03-01T02:13:08;94914.59;;;5.70;100.00
6090;BME280;3073;42.660;23.316;2023-03-01T02:15:36;94906.41;;;5.75;100.00
6090;BME280;3073;42.660;23.316;2023-03-01T02:18:06;94918.66;;;5.64;100.00
6090;BME280;3073;42.660;23.316;2023-03-01T02:20:38;94914.38;;;5.78;100.00
6090;BME280;3073;42.660;23.316;2023-03-01T02:23:08;94913.44;;;5.66;100.00
6090;BME280;3073;42.660;23.316;2023-03-01T02:25:41;94911.47;;;5.75;100.00
6090;BME280;3073;42.660;23.316;2023-03-01T02:28:22;94915.19;;;5.72;100.00
6090;BME280;3073;42.660;23.316;2023-03-01T02:30:50;94907.97;;;5.76;100.00
6090;BME280;3073;42.660;23.316;2023-03-01T02:33:36;94922.78;;;5.72;100.00
6090;BME280;3073;42.660;23.316;2023-03-01T02:36:06;94923.16;;;5.76;100.00
6090;BME280;3073;42.660;23.316;2023-03-01T02:38:34;94927.84;;;5.79;100.00
6090;BME280;3073;42.660;23.316;2023-03-01T02:41:02;94922.00;;;5.71;100.00
6090;BME280;3073;42.660;23.316;2023-03-01T02:43:34;94938.53;;;5.61;100.00
6090;BME280;3073;42.660;23.316;2023-03-01T02:46:05;94924.34;;;5.66;100.00
6090;BME280;3073;42.660;23.316;2023-03-01T02:48:40;94919.66;;;5.57;100.00
6090;BME280;3073;42.660;23.316;2023-03-01T02:51:16;94920.06;;;5.67;100.00
6090;BME280;3073;42.660;23.316;2023-03-01T02:53:54;94930.53;;;5.77;100.00
6090;BME280;3073;42.660;23.316;2023-03-01T02:56:23;94918.88;;;5.69;100.00
6090;BME280;3073;42.660;23.316;2023-03-01T02:58:52;94924.13;;;5.68;100.00
6090;BME280;3073;42.660;23.316;2023-03-01T03:01:19;94929.97;;;5.68;100.00
6090;BME280;3073;42.660;23.316;2023-03-01T03:03:47;94926.66;;;5.68;100.00
6090;BME280;3073;42.660;23.316;2023-03-01T03:06:15;94922.94;;;5.70;100.00
6090;BME280;3073;42.660;23.316;2023-03-01T03:08:42;94922.00;;;5.71;100.00
6090;BME280;3073;42.660;23.316;2023-03-01T03:11:09;94925.69;;;5.76;100.00
6090;BME280;3073;42.660;23.316;2023-03-01T03:13:36;94923.94;;;5.69;100.00
6090;BME280;3073;42.660;23.316;2023-03-01T03:16:06;94939.53;;;5.66;100.00
6090;BME280;3073;42.660;23.316;2023-03-01T03:18:32;94922.00;;;5.65;100.00
6090;BME280;3073;42.660;23.316;2023-03-01T03:20:59;94929.00;;;5.69;100.00
6090;BME280;3073;42.660;23.316;2023-03-01T03:23:26;94932.91;;;5.72;100.00
6090;BME280;3073;42.660;23.316;2023-03-01T03:25:54;94931.16;;;5.79;100.00
6090;BME280;3073;42.660;23.316;2023-03-01T03:28:21;94933.28;;;5.69;100.00
6090;BME280;3073;42.660;23.316;2023-03-01T03:30:48;94937.38;;;5.57;100.00
6090;BME280;3073;42.660;23.316;2023-03-01T03:33:16;94931.16;;;5.59;100.00
6090;BME280;3073;42.660;23.316;2023-03-01T03:35:45;94932.91;;;5.65;100.00
6090;BME280;3073;42.660;23.316;2023-03-01T03:38:14;94937.94;;;5.52;100.00
6090;BME280;3073;42.660;23.316;2023-03-01T03:40:44;94923.94;;;5.43;100.00
6090;BME280;3073;42.660;23.316;2023-03-01T03:43:12;94943.78;;;5.53;100.00
6090;BME280;3073;42.660;23.316;2023-03-01T03:45:39;94935.03;;;5.55;100.00
6090;BME280;3073;42.660;23.316;2023-03-01T03:48:07;94934.84;;;5.50;100.00
6090;BME280;3073;42.660;23.316;2023-03-01T03:50:47;94938.72;;;5.53;100.00
6090;BME280;3073;42.660;23.316;2023-03-01T03:53:15;94953.13;;;5.52;100.00
6090;BME280;3073;42.660;23.316;2023-03-01T03:55:42;94938.13;;;5.57;100.00
6090;BME280;3073;42.660;23.316;2023-03-01T03:58:10;94940.66;;;5.64;100.00
6090;BME280;3073;42.660;23.316;2023-03-01T04:00:39;94937.16;;;5.58;100.00
6090;BME280;3073;42.660;23.316;2023-03-01T04:03:06;94939.91;;;5.57;100.00
6090;BME280;3073;42.660;23.316;2023-03-01T04:05:33;94943.41;;;5.49;100.00
6090;BME280;3073;42.660;23.316;2023-03-01T04:08:02;94946.09;;;5.41;100.00
6090;BME280;3073;42.660;23.316;2023-03-01T04:10:34;94948.66;;;5.67;100.00
6090;BME280;3073;42.660;23.316;2023-03-01T04:13:02;94943.41;;;5.69;100.00
6090;BME280;3073;42.660;23.316;2023-03-01T04:15:30;94941.28;;;5.59;100.00
6090;BME280;3073;42.660;23.316;2023-03-01T04:17:59;94945.16;;;5.68;100.00
6090;BME280;3073;42.660;23.316;2023-03-01T04:20:35;94939.13;;;5.69;100.00
6090;BME280;3073;42.660;23.316;2023-03-01T04:23:07;94942.44;;;5.70;100.00
6090;BME280;3073;42.660;23.316;2023-03-01T04:25:39;94945.41;;;5.87;100.00
6090;BME280;3073;42.660;23.316;2023-03-01T04:28:07;94945.38;;;5.74;100.00
6090;BME280;3073;42.660;23.316;2023-03-01T04:30:34;94947.31;;;5.71;100.00
6090;BME280;3073;42.660;23.316;2023-03-01T04:33:03;94946.72;;;5.50;100.00
6090;BME280;3073;42.660;23.316;2023-03-01T04:35:33;94944.19;;;5.56;100.00
6090;BME280;3073;42.660;23.316;2023-03-01T04:38:00;94943.78;;;5.53;100.00
6090;BME280;3073;42.660;23.316;2023-03-01T04:40:29;94934.44;;;5.47;100.00
6090;BME280;3073;42.660;23.316;2023-03-01T04:42:56;94935.03;;;5.49;100.00
6090;BME280;3073;42.660;23.316;2023-03-01T04:45:22;94936.97;;;5.40;100.00
6090;BME280;3073;42.660;23.316;2023-03-01T04:47:49;94938.34;;;5.49;100.00
6090;BME280;3073;42.660;23.316;2023-03-01T04:50:18;94935.19;;;5.41;100.00
6090;BME280;3073;42.660;23.316;2023-03-01T04:52:47;94931.31;;;5.38;100.00
6090;BME280;3073;42.660;23.316;2023-03-01T04:55:14;94927.03;;;5.52;100.00
6090;BME280;3073;42.660;23.316;2023-03-01T04:57:42;94928.22;;;5.36;100.00
6090;BME280;3073;42.660;23.316;2023-03-01T05:00:12;94923.94;;;5.37;100.00
6090;BME280;3073;42.660;23.316;2023-03-01T05:02:50;94929.56;;;5.45;100.00
6090;BME280;3073;42.660;23.316;2023-03-01T05:05:21;94933.66;;;5.46;100.00
6090;BME280;3073;42.660;23.316;2023-03-01T05:07:52;94940.25;;;5.34;100.00
6090;BME280;3073;42.660;23.316;2023-03-01T05:10:23;94938.72;;;5.46;100.00
6090;BME280;3073;42.660;23.316;2023-03-01T05:12:54;94941.03;;;5.41;100.00
6090;BME280;3073;42.660;23.316;2023-03-01T05:15:23;94928.38;;;5.35;100.00
6090;BME280;3073;42.660;23.316;2023-03-01T05:17:52;94939.50;;;5.40;100.00
6090;BME280;3073;42.660;23.316;2023-03-01T05:20:20;94940.25;;;5.34;100.00
6090;BME280;3073;42.660;23.316;2023-03-01T05:22:49;94940.06;;;5.36;100.00
6090;BME280;3073;42.660;23.316;2023-03-01T05:25:16;94939.91;;;5.50;100.00
6090;BME280;3073;42.660;23.316;2023-03-01T05:27:44;94934.81;;;5.37;100.00
6090;BME280;3073;42.660;23.316;2023-03-01T05:30:23;94937.56;;;5.49;100.00
6090;BME280;3073;42.660;23.316;2023-03-01T05:32:50;94939.13;;;5.43;100.00
6090;BME280;3073;42.660;23.316;2023-03-01T05:35:25;94939.69;;;5.45;100.00
6090;BME280;3073;42.660;23.316;2023-03-01T05:37:52;94925.88;;;5.54;100.00
6090;BME280;3073;42.660;23.316;2023-03-01T05:40:24;94935.03;;;5.49;100.00
6090;BME280;3073;42.660;23.316;2023-03-01T05:42:54;94937.56;;;5.42;100.00
6090;BME280;3073;42.660;23.316;2023-03-01T05:45:24;94937.34;;;5.44;100.00
6090;BME280;3073;42.660;23.316;2023-03-01T05:47:52;94944.19;;;5.50;100.00
6090;BME280;3073;42.660;23.316;2023-03-01T05:50:22;94939.13;;;5.50;100.00
6090;BME280;3073;42.660;23.316;2023-03-01T05:52:52;94942.84;;;5.74;100.00
6090;BME280;3073;42.660;23.316;2023-03-01T05:55:23;94942.84;;;5.74;100.00
6090;BME280;3073;42.660;23.316;2023-03-01T05:57:50;94948.88;;;5.66;100.00
6090;BME280;3073;42.660;23.316;2023-03-01T06:00:18;94946.91;;;5.75;100.00
6090;BME280;3073;42.660;23.316;2023-03-01T06:02:49;94959.38;;;5.56;100.00
6090;BME280;3073;42.660;23.316;2023-03-01T06:05:17;94965.63;;;5.67;100.00
6090;BME280;3073;42.660;23.316;2023-03-01T06:07:44;94964.84;;;5.66;100.00
6090;BME280;3073;42.660;23.316;2023-03-01T06:10:12;94968.72;;;5.62;100.00
6090;BME280;3073;42.660;23.316;2023-03-01T06:12:40;94966.63;;;5.86;100.00
6090;BME280;3073;42.660;23.316;2023-03-01T06:15:08;94966.59;;;5.79;100.00
6090;BME280;3073;42.660;23.316;2023-03-01T06:17:37;94973.41;;;5.85;100.00
6090;BME280;3073;42.660;23.316;2023-03-01T06:20:08;94975.00;;;5.93;100.00
6090;BME280;3073;42.660;23.316;2023-03-01T06:22:35;94981.03;;;6.11;100.00
6090;BME280;3073;42.660;23.316;2023-03-01T06:25:03;94986.28;;;6.10;100.00
6090;BME280;3073;42.660;23.316;2023-03-01T06:27:30;94975.38;;;6.09;100.00
6090;BME280;3073;42.660;23.316;2023-03-01T06:29:57;94981.41;;;6.21;100.00
6090;BME280;3073;42.660;23.316;2023-03-01T06:32:24;94972.25;;;6.14;100.00
6090;BME280;3073;42.660;23.316;2023-03-01T06:34:51;94977.91;;;6.16;100.00
6090;BME280;3073;42.660;23.316;2023-03-01T06:37:19;94978.31;;;6.13;100.00
6090;BME280;3073;42.660;23.316;2023-03-01T06:39:46;94981.81;;;5.99;100.00
6090;BME280;3073;42.660;23.316;2023-03-01T06:42:13;94984.34;;;5.86;100.00
6090;BME280;3073;42.660;23.316;2023-03-01T06:44:39;94979.81;;;5.75;100.00
6090;BME280;3073;42.660;23.316;2023-03-01T06:47:06;94978.69;;;5.84;100.00
6090;BME280;3073;42.660;23.316;2023-03-01T06:49:35;94976.31;;;5.76;100.00
6090;BME280;3073;42.660;23.316;2023-03-01T06:52:02;94974.75;;;5.68;100.00
6090;BME280;3073;42.660;23.316;2023-03-01T06:54:31;94977.09;;;5.76;100.00
6090;BME280;3073;42.660;23.316;2023-03-01T06:56:58;94982.00;;;5.91;100.00
6090;BME280;3073;42.660;23.316;2023-03-01T06:59:24;94978.69;;;5.90;100.00
6090;BME280;3073;42.660;23.316;2023-03-01T07:01:51;94982.38;;;6.01;100.00
6090;BME280;3073;42.660;23.316;2023-03-01T07:04:18;94976.91;;;6.04;100.00
6090;BME280;3073;42.660;23.316;2023-03-01T07:06:45;94980.22;;;6.11;100.00
6090;BME280;3073;42.660;23.316;2023-03-01T07:09:19;94994.06;;;6.15;100.00
6090;BME280;3073;42.660;23.316;2023-03-01T07:11:49;94986.28;;;6.16;100.00
6090;BME280;3073;42.660;23.316;2023-03-01T07:14:16;94983.13;;;6.28;100.00
6090;BME280;3073;42.660;23.316;2023-03-01T07:16:43;94974.41;;;6.17;100.00
6090;BME280;3073;42.660;23.316;2023-03-01T07:19:09;94976.16;;;5.90;100.00
6090;BME280;3073;42.660;23.316;2023-03-01T07:21:36;94981.03;;;6.05;100.00
6090;BME280;3073;42.660;23.316;2023-03-01T07:24:05;94970.88;;;6.11;100.00
6090;BME280;3073;42.660;23.316;2023-03-01T07:26:32;94979.84;;;6.07;100.00
6090;BME280;3073;42.660;23.316;2023-03-01T07:29:01;94971.47;;;6.20;100.00
6090;BME280;3073;42.660;23.316;2023-03-01T07:31:28;94985.09;;;6.32;100.00
6090;BME280;3073;42.660;23.316;2023-03-01T07:33:55;94973.00;;;6.21;100.00
6090;BME280;3073;42.660;23.316;2023-03-01T07:36:22;94964.63;;;6.34;100.00
6090;BME280;3073;42.660;23.316;2023-03-01T07:38:49;94965.75;;;6.44;100.00
6090;BME280;3073;42.660;23.316;2023-03-01T07:41:16;94969.88;;;6.39;100.00
6090;BME280;3073;42.660;23.316;2023-03-01T07:43:43;94968.13;;;6.39;100.00
6090;BME280;3073;42.660;23.316;2023-03-01T07:46:12;94964.84;;;6.19;100.00
6090;BME280;3073;42.660;23.316;2023-03-01T07:48:38;94963.06;;;6.33;100.00
6090;BME280;3073;42.660;23.316;2023-03-01T07:51:06;94961.88;;;6.42;100.00
6090;BME280;3073;42.660;23.316;2023-03-01T07:53:34;94970.28;;;6.36;100.00
6090;BME280;3073;42.660;23.316;2023-03-01T07:56:02;94967.72;;;6.42;100.00
6090;BME280;3073;42.660;23.316;2023-03-01T07:58:29;94960.69;;;6.44;100.00
6090;BME280;3073;42.660;23.316;2023-03-01T08:00:56;94963.81;;;6.46;100.00
6090;BME280;3073;42.660;23.316;2023-03-01T08:03:24;94969.47;;;6.42;100.00
6090;BME280;3073;42.660;23.316;2023-03-01T08:05:51;94961.31;;;6.40;100.00
6090;BME280;3073;42.660;23.316;2023-03-01T08:08:18;94960.50;;;6.52;100.00
6090;BME280;3073;42.660;23.316;2023-03-01T08:10:44;94953.78;;;6.78;100.00
6090;BME280;3073;42.660;23.316;2023-03-01T08:13:11;94952.41;;;6.75;100.00
6090;BME280;3073;42.660;23.316;2023-03-01T08:15:38;94956.13;;;6.79;100.00
6090;BME280;3073;42.660;23.316;2023-03-01T08:18:05;94957.69;;;6.80;100.00
6090;BME280;3073;42.660;23.316;2023-03-01T08:20:34;94949.34;;;6.66;100.00
6090;BME280;3073;42.660;23.316;2023-03-01T08:23:00;94952.84;;;6.65;100.00
6090;BME280;3073;42.660;23.316;2023-03-01T08:25:27;94958.50;;;6.61;100.00
6090;BME280;3073;42.660;23.316;2023-03-01T08:27:54;94950.53;;;6.57;100.00
6090;BME280;3073;42.660;23.316;2023-03-01T08:30:21;94958.84;;;6.78;100.00
6090;BME280;3073;42.660;23.316;2023-03-01T08:32:49;94958.00;;;6.97;100.00
6090;BME280;3073;42.660;23.316;2023-03-01T08:35:17;94950.63;;;6.89;100.00
6090;BME280;3073;42.660;23.316;2023-03-01T08:37:45;94953.53;;;7.30;100.00
6090;BME280;3073;42.660;23.316;2023-03-01T08:40:13;94948.88;;;7.20;100.00
6090;BME280;3073;42.660;23.316;2023-03-01T08:42:41;94947.06;;;7.34;100.00
6090;BME280;3073;42.660;23.316;2023-03-01T08:45:10;94956.59;;;7.39;100.00
6090;BME280;3073;42.660;23.316;2023-03-01T08:47:38;94954.34;;;7.55;100.00
6090;BME280;3073;42.660;23.316;2023-03-01T08:50:06;94951.00;;;7.86;100.00
6090;BME280;3073;42.660;23.316;2023-03-01T08:52:33;94949.78;;;7.64;100.00
6090;BME280;3073;42.660;23.316;2023-03-01T08:55:01;94947.78;;;7.41;100.00
6090;BME280;3073;42.660;23.316;2023-03-01T08:57:28;94951.28;;;7.15;100.00
6090;BME280;3073;42.660;23.316;2023-03-01T08:59:56;94964.75;;;7.78;100.00
6090;BME280;3073;42.660;23.316;2023-03-01T09:02:23;94958.13;;;7.46;100.00
6090;BME280;3073;42.660;23.316;2023-03-01T09:04:50;94939.34;;;7.47;100.00
6090;BME280;3073;42.660;23.316;2023-03-01T09:07:16;94955.94;;;7.18;100.00
6090;BME280;3073;42.660;23.316;2023-03-01T09:09:43;94960.06;;;7.75;100.00
6090;BME280;3073;42.660;23.316;2023-03-01T09:12:12;94951.44;;;7.83;100.00
6090;BME280;3073;42.660;23.316;2023-03-01T09:14:38;94956.69;;;7.82;100.00
6090;BME280;3073;42.660;23.316;2023-03-01T09:17:08;94956.66;;;7.88;100.00
6090;BME280;3073;42.660;23.316;2023-03-01T09:19:35;94956.59;;;7.95;100.00
6090;BME280;3073;42.660;23.316;2023-03-01T09:22:03;94947.47;;;8.12;100.00
6090;BME280;3073;42.660;23.316;2023-03-01T09:24:30;94952.13;;;8.15;100.00
6090;BME280;3073;42.660;23.316;2023-03-01T09:26:57;94952.09;;;7.72;100.00
6090;BME280;3073;42.660;23.316;2023-03-01T09:29:25;94949.44;;;7.85;100.00
6090;BME280;3073;42.660;23.316;2023-03-01T09:31:52;94953.94;;;8.08;100.00
6090;BME280;3073;42.660;23.316;2023-03-01T09:34:20;94958.09;;;8.27;100.00
6090;BME280;3073;42.660;23.316;2023-03-01T09:36:49;94949.97;;;7.94;100.00
6090;BME280;3073;42.660;23.316;2023-03-01T09:39:15;94944.97;;;7.81;100.00
6090;BME280;3073;42.660;23.316;2023-03-01T09:41:47;94947.97;;;7.46;100.00
6090;BME280;3073;42.660;23.316;2023-03-01T09:44:29;94934.78;;;7.31;100.00
6090;BME280;3073;42.660;23.316;2023-03-01T09:46:58;94949.16;;;7.44;100.00
6090;BME280;3073;42.660;23.316;2023-03-01T09:49:27;94951.56;;;7.63;100.00
6090;BME280;3073;42.660;23.316;2023-03-01T09:51:59;94933.34;;;7.73;100.00
6090;BME280;3073;42.660;23.316;2023-03-01T09:54:27;94938.63;;;7.96;100.00
6090;BME280;3073;42.660;23.316;2023-03-01T09:57:05;94932.38;;;7.92;100.00
6090;BME280;3073;42.660;23.316;2023-03-01T09:59:42;94943.84;;;8.01;100.00
6090;BME280;3073;42.660;23.316;2023-03-01T10:02:23;94929.84;;;8.17;100.00
6090;BME280;3073;42.660;23.316;2023-03-01T10:04:54;94930.09;;;8.09;100.00
6090;BME280;3073;42.660;23.316;2023-03-01T10:07:32;94917.88;;;8.17;100.00
6090;BME280;3073;42.660;23.316;2023-03-01T10:10:06;94918.03;;;8.22;100.00
6090;BME280;3073;42.660;23.316;2023-03-01T10:12:37;94916.47;;;8.46;100.00
6090;BME280;3073;42.660;23.316;2023-03-01T10:15:10;94920.00;;;8.45;100.00
6090;BME280;3073;42.660;23.316;2023-03-01T10:17:43;94917.56;;;8.68;100.00
6090;BME280;3073;42.660;23.316;2023-03-01T10:20:19;94916.59;;;8.69;100.00
6090;BME280;3073;42.660;23.316;2023-03-01T10:22:46;94913.63;;;8.36;100.00
6090;BME280;3073;42.660;23.316;2023-03-01T10:25:20;94907.63;;;8.49;100.00
6090;BME280;3073;42.660;23.316;2023-03-01T10:27:52;94897.81;;;8.34;100.00
6090;BME280;3073;42.660;23.316;2023-03-01T10:30:25;94902.50;;;8.12;100.00
6090;BME280;3073;42.660;23.316;2023-03-01T10:32:57;94911.81;;;8.43;100.00
6090;BME280;3073;42.660;23.316;2023-03-01T10:35:26;94898.09;;;8.62;100.00
6090;BME280;3073;42.660;23.316;2023-03-01T10:37:58;94894.63;;;8.20;100.00
6090;BME280;3073;42.660;23.316;2023-03-01T10:40:28;94893.44;;;8.41;100.00
6090;BME280;3073;42.660;23.316;2023-03-01T10:42:58;94892.97;;;8.08;100.00
6090;BME280;3073;42.660;23.316;2023-03-01T10:45:35;94892.81;;;8.21;100.00
6090;BME280;3073;42.660;23.316;2023-03-01T10:48:11;94894.56;;;8.27;100.00
6090;BME280;3073;42.660;23.316;2023-03-01T10:50:40;94890.25;;;8.64;100.00
6090;BME280;3073;42.660;23.316;2023-03-01T10:53:21;94890.47;;;8.44;100.00
6090;BME280;3073;42.660;23.316;2023-03-01T10:55:56;94896.81;;;8.35;100.00
6090;BME280;3073;42.660;23.316;2023-03-01T10:58:23;94890.94;;;8.71;100.00
6090;BME280;3073;42.660;23.316;2023-03-01T11:00:53;94894.91;;;8.67;100.00
6090;BME280;3073;42.660;23.316;2023-03-01T11:03:23;94889.63;;;8.98;100.00
6090;BME280;3073;42.660;23.316;2023-03-01T11:05:54;94896.44;;;9.27;100.00
6090;BME280;3073;42.660;23.316;2023-03-01T11:08:35;94894.88;;;9.15;100.00
6090;BME280;3073;42.660;23.316;2023-03-01T11:11:14;94885.47;;;9.15;100.00
6090;BME280;3073;42.660;23.316;2023-03-01T11:13:50;94896.31;;;8.45;100.00
6090;BME280;3073;42.660;23.316;2023-03-01T11:16:25;94899.16;;;8.37;100.00
6090;BME280;3073;42.660;23.316;2023-03-01T11:19:01;94898.38;;;8.54;100.00
6090;BME280;3073;42.660;23.316;2023-03-01T11:21:32;94892.19;;;8.50;100.00
6090;BME280;3073;42.660;23.316;2023-03-01T11:24:02;94899.56;;;8.70;100.00
6090;BME280;3073;42.660;23.316;2023-03-01T11:26:31;94890.66;;;8.79;100.00
6090;BME280;3073;42.660;23.316;2023-03-01T11:29:05;94886.72;;;8.95;100.00
6090;BME280;3073;42.660;23.316;2023-03-01T11:31:35;94891.38;;;8.68;100.00
6090;BME280;3073;42.660;23.316;2023-03-01T11:34:06;94887.31;;;8.78;100.00
6090;BME280;3073;42.660;23.316;2023-03-01T11:36:41;94886.53;;;8.96;100.00
6090;BME280;3073;42.660;23.316;2023-03-01T11:39:20;94880.31;;;8.92;100.00
6090;BME280;3073;42.660;23.316;2023-03-01T11:42:01;94881.97;;;8.68;100.00
6090;BME280;3073;42.660;23.316;2023-03-01T11:44:35;94866.28;;;8.71;100.00
6090;BME280;3073;42.660;23.316;2023-03-01T11:47:17;94871.97;;;8.37;100.00
6090;BME280;3073;42.660;23.316;2023-03-01T11:50:06;94859.25;;;8.55;100.00
6090;BME280;3073;42.660;23.316;2023-03-01T11:52:48;94857.22;;;8.46;100.00
6090;BME280;3073;42.660;23.316;2023-03-01T11:55:24;94844.53;;;8.57;100.00
6090;BME280;3073;42.660;23.316;2023-03-01T11:58:07;94854.84;;;8.81;100.00
6090;BME280;3073;42.660;23.316;2023-03-01T12:00:48;94856.50;;;8.87;100.00
6090;BME280;3073;42.660;23.316;2023-03-01T12:03:33;94855.78;;;8.32;100.00
6090;BME280;3073;42.660;23.316;2023-03-01T12:06:36;94854.94;;;8.56;100.00
6090;BME280;3073;42.660;23.316;2023-03-01T12:09:23;94841.88;;;8.52;100.00
6090;BME280;3073;42.660;23.316;2023-03-01T12:12:27;94846.31;;;8.57;100.00
6090;BME280;3073;42.660;23.316;2023-03-01T12:17:57;94838.97;;;8.67;100.00
6090;BME280;3073;42.660;23.316;2023-03-01T12:20:36;94843.81;;;8.68;100.00
6090;BME280;3073;42.660;23.316;2023-03-01T12:23:24;94832.78;;;8.74;100.00
6090;BME280;3073;42.660;23.316;2023-03-01T12:25:58;94835.28;;;8.93;100.00
6090;BME280;3073;42.660;23.316;2023-03-01T12:28:42;94834.78;;;9.14;100.00
6090;BME280;3073;42.660;23.316;2023-03-01T12:34:26;94832.16;;;8.91;100.00
6090;BME280;3073;42.660;23.316;2023-03-01T12:37:13;94827.47;;;9.17;100.00
6090;BME280;3073;42.660;23.316;2023-03-01T12:39:55;94824.31;;;9.34;100.00
6090;BME280;3073;42.660;23.316;2023-03-01T12:42:32;94822.97;;;9.31;100.00
6090;BME280;3073;42.660;23.316;2023-03-01T12:45:26;94829.75;;;9.37;100.00
6090;BME280;3073;42.660;23.316;2023-03-01T12:48:08;94819.31;;;9.39;100.00
6090;BME280;3073;42.660;23.316;2023-03-01T12:50:40;94826.66;;;9.47;100.00
6090;BME280;3073;42.660;23.316;2023-03-01T12:53:22;94824.22;;;9.40;100.00
6090;BME280;3073;42.660;23.316;2023-03-01T12:55:50;94820.53;;;9.36;100.00
6090;BME280;3073;42.660;23.316;2023-03-01T12:58:24;94817.66;;;9.79;100.00
6090;BME280;3073;42.660;23.316;2023-03-01T13:01:08;94823.94;;;10.11;100.00
6090;BME280;3073;42.660;23.316;2023-03-01T13:03:54;94818.31;;;9.74;100.00
6090;BME280;3073;42.660;23.316;2023-03-01T13:06:31;94826.09;;;9.79;100.00
6090;BME280;3073;42.660;23.316;2023-03-01T13:09:06;94824.22;;;9.63;100.00
6090;BME280;3073;42.660;23.316;2023-03-01T13:11:36;94829.53;;;9.50;100.00
6090;BME280;3073;42.660;23.316;2023-03-01T13:14:36;94820.22;;;9.67;100.00
6090;BME280;3073;42.660;23.316;2023-03-01T13:17:03;94828.44;;;9.69;100.00
6090;BME280;3073;42.660;23.316;2023-03-01T13:19:30;94828.50;;;9.51;100.00
6090;BME280;3073;42.660;23.316;2023-03-01T13:21:58;94822.66;;;9.62;100.00
6090;BME280;3073;42.660;23.316;2023-03-01T13:24:35;94818.06;;;9.06;100.00
6090;BME280;3073;42.660;23.316;2023-03-01T13:27:25;94831.41;;;8.90;100.00
6090;BME280;3073;42.660;23.316;2023-03-01T13:29:55;94831.94;;;8.81;100.00
6090;BME280;3073;42.660;23.316;2023-03-01T13:32:26;94824.19;;;8.57;100.00
6090;BME280;3073;42.660;23.316;2023-03-01T13:34:58;94820.28;;;8.43;100.00
6090;BME280;3073;42.660;23.316;2023-03-01T13:37:27;94824.69;;;8.66;100.00